EDT,Max TemperatureF,Mean TemperatureF,Min TemperatureF,Max Dew PointF,MeanDew PointF,Min DewpointF,Max Humidity, Mean Humidity, Min Humidity, Max Sea Level PressureIn, Mean Sea Level PressureIn, Min Sea Level PressureIn, Max VisibilityMiles, Mean VisibilityMiles, Min VisibilityMiles, Max Wind SpeedMPH, Mean Wind SpeedMPH, Max Gust SpeedMPH,PrecipitationIn, CloudCover, Events, WindDirDegrees
2013-3-1,35,34,32,31,29,27,93,84,75,29.67,29.61,29.53,10,5,1,7,3,,0.06,8,Snow,330
2013-3-2,39,34,30,32,30,28,93,85,63,29.65,29.63,29.60,10,5,1,6,2,,0.09,8,Snow,312
2013-3-3,41,37,33,32,30,25,92,77,60,29.61,29.57,29.52,10,8,2,7,1,,0.01,8,Snow,-1
2013-3-4,34,32,30,28,25,21,86,76,64,29.68,29.54,29.50,10,4,1,10,5,22,0.09,8,Snow,304
2013-3-5,44,38,32,32,31,28,89,78,57,30.12,29.92,29.70,10,9,2,8,5,,0.02,8,Rain-Snow,30
2013-3-6,37,35,33,32,28,23,89,73,60,30.26,30.22,30.13,10,9,2,15,7,31,0.01,7,Snow,55
2013-3-7,37,34,32,25,22,21,73,61,52,30.22,30.15,30.09,10,9,2,15,7,26,0.00,8,Snow,38
2013-3-8,46,38,30,25,20,16,82,56,29,30.20,30.09,30.04,10,8,2,13,8,26,0.01,5,Snow,22
2013-3-9,48,38,26,22,20,15,78,56,27,30.39,30.28,30.20,10,10,10,9,5,21,0.00,0,,5
2013-3-10,39,30,21,30,24,18,93,73,57,30.44,30.39,30.32,10,10,10,9,2,,0.00,3,,180
2013-3-11,44,40,36,38,34,30,87,79,68,30.32,30.23,30.17,10,10,6,10,6,16,0.00,5,,194
2013-3-12,50,45,42,46,43,37,93,88,80,30.18,30.00,29.76,10,7,2,16,7,34,0.69,8,Rain,179
2013-3-13,50,40,30,46,39,25,100,82,50,29.76,29.71,29.67,10,7,0,12,5,22,0.04,7,Fog-Rain,204
2013-3-14,41,32,21,28,21,4,89,67,41,29.75,29.68,29.62,10,8,1,9,2,21,0.00,6,Snow,295
2013-3-15,35,26,17,16,7,2,78,47,26,29.80,29.71,29.62,10,10,10,12,6,28,0.00,2,,307
2013-3-16,37,28,21,18,10,4,78,48,27,29.91,29.78,29.63,10,10,10,9,2,17,0.00,3,,276
2013-3-17,34,22,15,10,2,-5,80,42,24,30.32,30.05,29.92,10,10,10,14,3,29,0.00,1,,299
2013-3-18,37,24,10,18,4,-5,70,46,17,30.45,30.37,30.31,10,10,10,7,1,18,0.00,0,,230
2013-3-19,30,27,24,28,23,18,93,83,59,30.29,29.98,29.66,10,2,0,15,6,26,0.74,8,Fog-Snow,79
2013-3-20,36,28,21,21,19,16,86,72,50,29.73,29.66,29.62,10,7,0,9,5,,0.07,6,Fog-Snow,250
2013-3-21,37,28,19,21,16,10,85,58,33,29.77,29.70,29.62,10,10,10,7,4,,0.00,3,,209
2013-3-22,39,29,19,17,14,11,85,54,32,29.66,29.62,29.59,10,10,10,9,2,20,0.00,5,,280
2013-3-23,42,34,25,21,17,13,64,52,35,29.65,29.58,29.49,10,10,10,14,7,31,0.00,2,,278
2013-3-24,46,37,28,23,21,19,75,54,34,29.78,29.74,29.65,10,10,10,10,5,20,0.00,3,,307
2013-3-25,45,34,25,29,25,20,81,65,45,29.78,29.70,29.60,10,9,3,8,2,,0.00,4,,76
2013-3-26,48,40,32,24,21,19,69,49,32,29.73,29.63,29.57,10,10,10,10,4,20,0.00,3,,292
2013-3-27,46,36,26,37,32,21,93,77,47,29.86,29.77,29.72,10,9,4,8,3,,0.15,6,Rain,305
2013-3-28,51,40,30,34,30,26,89,71,39,29.97,29.92,29.87,10,10,10,7,1,,0.01,7,,-1
2013-3-29,57,44,30,34,29,25,92,62,32,30.02,29.98,29.94,10,10,8,10,2,20,0.00,5,,302
2013-3-30,55,42,28,29,22,8,88,57,16,30.09,30.03,29.98,10,10,10,8,1,20,0.00,2,,305
2013-3-31,50,36,23,36,23,14,85,60,24,30.13,30.06,29.88,10,10,10,9,2,17,0.00,1,,176